Time;durP1;ratioP1;P1;durP2;ratioP2;P2;SDS_P1;SDS_P2;PMS_P1;PMS_P2;Temp;Humidity;BMP_temperature;BMP_pressure;BME280_temperature;BME280_humidity;BME280_pressure;Samples;Min_cycle;Max_cycle;Signal;HPM_P1;HPM_P2
2023/01/16 00:01:00;;;;;;;;;;;7.20;99.90;;;;;;5062099;28;20026;-85
2023/01/16 00:03:27;;;;;;;;;;;7.20;99.90;;;;;;5055208;28;19924;-84
2023/01/16 00:05:54;;;;;;;;;;;7.20;99.90;;;;;;5049270;28;19924;-84
2023/01/16 00:08:21;;;;;;;;;;;7.20;99.90;;;;;;5069811;28;19921;-83
2023/01/16 00:10:47;;;;;;;;;;;7.30;99.90;;;;;;5065614;28;20423;-83
2023/01/16 00:13:14;;;;;;;;;;;7.20;99.90;;;;;;5049704;28;19951;-84
2023/01/16 00:15:44;;;;;;;;;;;7.20;99.90;;;;;;5046825;28;19978;-85
2023/01/16 00:18:12;;;;;;;;;;;7.10;99.90;;;;;;5046464;28;19962;-85
2023/01/16 00:20:39;;;;;;;;;;;7.00;99.90;;;;;;5051685;28;20295;-85
2023/01/16 00:23:06;;;;;;;;;;;7.00;99.90;;;;;;5049784;28;20291;-85
2023/01/16 00:25:33;;;;;;;;;;;6.80;99.90;;;;;;5048933;28;19931;-85
2023/01/16 00:27:59;;;;;;;;;;;6.70;99.90;;;;;;5052508;28;19946;-85
2023/01/16 00:30:26;;;;;;;;;;;6.70;99.90;;;;;;5046267;28;19925;-85
2023/01/16 00:32:53;;;;;;;;;;;6.60;99.90;;;;;;5048791;28;20441;-85
2023/01/16 00:35:21;;;;;;;;;;;6.50;99.90;;;;;;5036757;28;20353;-86
2023/01/16 00:37:48;;;;;;;;;;;6.40;99.90;;;;;;5058817;28;19996;-85
2023/01/16 00:40:14;;;;;;;;;;;6.60;99.90;;;;;;5067552;28;20434;-85
2023/01/16 00:42:41;;;;;;;;;;;6.30;99.90;;;;;;5045566;28;19921;-85
2023/01/16 00:45:09;;;;;;;;;;;6.20;99.90;;;;;;5044742;28;20012;-84
2023/01/16 00:47:36;;;;;;;;;;;6.20;99.90;;;;;;5036615;28;19974;-85
2023/01/16 00:50:03;;;;;;;;;;;6.10;99.90;;;;;;5064220;28;19931;-85
2023/01/16 00:52:32;;;;;;;;;;;6.00;99.90;;;;;;5045048;28;19928;-84
2023/01/16 00:54:58;;;;;;;;;;;5.90;99.90;;;;;;5047814;28;19928;-85
2023/01/16 00:57:25;;;;;;;;;;;5.90;99.90;;;;;;5063856;28;19932;-84
2023/01/16 00:59:52;;;;;;;;;;;5.80;99.90;;;;;;5044850;28;20024;-83
2023/01/16 01:02:19;;;;;;;;;;;5.60;99.90;;;;;;5064890;28;19920;-85
2023/01/16 01:04:45;;;;;;;;;;;5.80;99.90;;;;;;5060159;28;19951;-85
2023/01/16 01:07:12;;;;;;;;;;;5.80;99.90;;;;;;5051402;28;19924;-86
2023/01/16 01:09:40;;;;;;;;;;;5.80;99.90;;;;;;5040233;28;19924;-85
2023/01/16 01:12:07;;;;;;;;;;;5.70;99.90;;;;;;5040308;28;19975;-85
2023/01/16 01:14:34;;;;;;;;;;;5.70;99.90;;;;;;5041910;28;19942;-85
2023/01/16 01:17:00;;;;;;;;;;;6.60;99.90;;;;;;5051962;28;19924;-85
2023/01/16 01:19:27;;;;;;;;;;;5.60;99.90;;;;;;5061185;28;19920;-85
2023/01/16 01:21:54;;;;;;;;;;;5.60;99.90;;;;;;5039557;28;19920;-85
2023/01/16 01:24:21;;;;;;;;;;;5.60;99.90;;;;;;5059656;28;19932;-86
2023/01/16 01:26:49;;;;;;;;;;;5.70;99.90;;;;;;5039178;28;19927;-85
2023/01/16 01:29:15;;;;;;;;;;;5.80;99.90;;;;;;5049998;28;19928;-85
2023/01/16 01:31:42;;;;;;;;;;;5.80;99.90;;;;;;5057575;28;19928;-86
2023/01/16 01:34:09;;;;;;;;;;;5.70;99.90;;;;;;5057781;28;19928;-85
2023/01/16 01:36:36;;;;;;;;;;;5.70;99.90;;;;;;5043940;28;19924;-85
2023/01/16 01:39:03;;;;;;;;;;;6.10;99.90;;;;;;5036715;28;19925;-85
2023/01/16 01:41:29;;;;;;;;;;;6.00;99.90;;;;;;5043097;28;19928;-85
2023/01/16 01:43:57;;;;;;;;;;;5.80;99.90;;;;;;5046005;28;19921;-84
2023/01/16 01:46:26;;;;;;;;;;;5.70;99.90;;;;;;5039655;28;19924;-84
2023/01/16 01:48:55;;;;;;;;;;;5.70;99.90;;;;;;5044012;28;19925;-85
2023/01/16 01:51:23;;;;;;;;;;;5.60;99.90;;;;;;5042218;28;20011;-85
2023/01/16 01:53:54;;;;;;;;;;;5.50;99.90;;;;;;5043387;28;19924;-85
2023/01/16 01:56:23;;;;;;;;;;;5.50;99.90;;;;;;5051273;28;19927;-84
2023/01/16 01:58:50;;;;;;;;;;;5.50;99.90;;;;;;5055926;28;19928;-85
2023/01/16 02:01:18;;;;;;;;;;;5.50;99.90;;;;;;5034318;28;20378;-85
2023/01/16 02:03:48;;;;;;;;;;;6.30;99.90;;;;;;5030739;28;19924;-86
2023/01/16 02:06:17;;;;;;;;;;;6.20;99.90;;;;;;5030911;28;19956;-85
2023/01/16 02:08:44;;;;;;;;;;;5.50;99.90;;;;;;5043095;28;19928;-85
2023/01/16 02:11:25;;;;;;;;;;;5.50;99.90;;;;;;5041283;28;20449;-85
2023/01/16 02:13:52;;;;;;;;;;;5.50;99.90;;;;;;5041613;28;19952;-86
2023/01/16 02:19:17;;;;;;;;;;;5.60;99.90;;;;;;5033255;28;19991;-86
2023/01/16 02:21:53;;;;;;;;;;;5.70;99.90;;;;;;5049034;28;19958;-85
2023/01/16 02:24:28;;;;;;;;;;;5.70;99.90;;;;;;5044623;28;19928;-83
2023/01/16 02:27:18;;;;;;;;;;;5.90;99.90;;;;;;5068825;28;19920;-85
2023/01/16 02:29:57;;;;;;;;;;;5.90;99.90;;;;;;5029697;28;19924;-85
2023/01/16 02:32:33;;;;;;;;;;;6.00;99.90;;;;;;5054231;28;19909;-84
2023/01/16 02:35:11;;;;;;;;;;;6.00;99.90;;;;;;5064533;28;19908;-82
2023/01/16 02:37:42;;;;;;;;;;;6.00;99.90;;;;;;5057621;28;19942;-83
2023/01/16 02:40:16;;;;;;;;;;;6.00;99.90;;;;;;5064967;28;19919;-83
2023/01/16 02:42:44;;;;;;;;;;;6.00;99.90;;;;;;5081383;28;19935;-83
2023/01/16 02:45:16;;;;;;;;;;;6.00;99.90;;;;;;5063878;28;19973;-83
2023/01/16 02:47:47;;;;;;;;;;;8.70;99.90;;;;;;5075514;28;19931;-83
2023/01/16 02:50:19;;;;;;;;;;;7.40;99.90;;;;;;5059011;28;19909;-83
2023/01/16 02:52:49;;;;;;;;;;;6.20;99.90;;;;;;5079138;28;19908;-83
2023/01/16 02:55:21;;;;;;;;;;;6.20;99.90;;;;;;5092253;28;19915;-83
2023/01/16 02:57:51;;;;;;;;;;;6.20;99.90;;;;;;5065523;28;19913;-84
2023/01/16 03:00:19;;;;;;;;;;;6.30;99.90;;;;;;5076284;28;19908;-84
2023/01/16 03:02:47;;;;;;;;;;;6.30;99.90;;;;;;5056681;28;19915;-83
2023/01/16 03:05:14;;;;;;;;;;;6.40;99.90;;;;;;5073178;28;19914;-83
2023/01/16 03:07:47;;;;;;;;;;;6.40;99.90;;;;;;5070636;28;19939;-86
2023/01/16 03:10:33;;;;;;;;;;;6.40;99.90;;;;;;5036275;28;19928;-85
2023/01/16 03:13:08;;;;;;;;;;;6.40;99.90;;;;;;5033092;28;20034;-85
2023/01/16 03:15:38;;;;;;;;;;;6.50;99.90;;;;;;5044287;28;19924;-85
2023/01/16 03:18:11;;;;;;;;;;;7.10;99.90;;;;;;5056076;28;19923;-83
2023/01/16 03:20:43;;;;;;;;;;;6.40;99.90;;;;;;5051676;28;19936;-86
2023/01/16 03:23:13;;;;;;;;;;;6.40;99.90;;;;;;5051039;28;19947;-82
2023/01/16 03:25:45;;;;;;;;;;;6.40;99.90;;;;;;5070559;28;19928;-83
2023/01/16 03:28:14;;;;;;;;;;;6.70;99.90;;;;;;5051999;28;19927;-84
2023/01/16 03:30:46;;;;;;;;;;;6.30;99.90;;;;;;5052125;28;19924;-86
2023/01/16 03:33:18;;;;;;;;;;;6.50;99.90;;;;;;5042569;28;20465;-85
2023/01/16 03:35:50;;;;;;;;;;;6.10;99.90;;;;;;5034819;28;19932;-84
2023/01/16 03:38:18;;;;;;;;;;;6.00;99.90;;;;;;5066059;28;19925;-85
2023/01/16 03:40:47;;;;;;;;;;;6.40;99.90;;;;;;5027641;28;19925;-86
2023/01/16 03:43:16;;;;;;;;;;;5.80;99.90;;;;;;5057288;28;19920;-86
2023/01/16 03:45:45;;;;;;;;;;;5.70;99.90;;;;;;5058371;28;19924;-83
2023/01/16 03:48:14;;;;;;;;;;;5.70;99.90;;;;;;5062552;28;19924;-84
2023/01/16 03:50:45;;;;;;;;;;;5.70;99.90;;;;;;5050316;28;19940;-82
2023/01/16 03:53:13;;;;;;;;;;;5.70;99.90;;;;;;5044816;28;19928;-84
2023/01/16 03:55:43;;;;;;;;;;;5.80;99.90;;;;;;5051456;28;20318;-84
2023/01/16 03:58:14;;;;;;;;;;;6.10;99.90;;;;;;5030360;28;20011;-86
2023/01/16 04:00:48;;;;;;;;;;;5.80;99.90;;;;;;5055048;28;19931;-84
2023/01/16 04:03:18;;;;;;;;;;;5.90;99.90;;;;;;5043052;28;19924;-86
2023/01/16 04:05:48;;;;;;;;;;;5.90;99.90;;;;;;5063811;28;20042;-86
2023/01/16 04:08:17;;;;;;;;;;;5.90;99.90;;;;;;5047902;28;19943;-86
2023/01/16 04:10:44;;;;;;;;;;;5.90;99.90;;;;;;5044932;28;19924;-86
2023/01/16 04:13:12;;;;;;;;;;;5.80;99.90;;;;;;5053073;28;19977;-86
2023/01/16 04:15:40;;;;;;;;;;;5.80;99.90;;;;;;5043691;28;19925;-82
2023/01/16 04:18:07;;;;;;;;;;;6.40;99.90;;;;;;5060766;28;20359;-86
2023/01/16 04:20:35;;;;;;;;;;;5.70;99.90;;;;;;5061059;28;19928;-86
2023/01/16 04:23:03;;;;;;;;;;;6.40;99.90;;;;;;5045375;28;19924;-86
2023/01/16 04:25:29;;;;;;;;;;;6.20;99.90;;;;;;5037961;28;20393;-86
2023/01/16 04:27:57;;;;;;;;;;;5.60;99.90;;;;;;5062302;28;20455;-86
2023/01/16 04:30:23;;;;;;;;;;;5.50;99.90;;;;;;5041590;28;19931;-86
2023/01/16 04:32:50;;;;;;;;;;;5.40;99.90;;;;;;5044518;28;19924;-86
2023/01/16 04:35:17;;;;;;;;;;;5.70;99.90;;;;;;5065033;28;20006;-86
2023/01/16 04:37:44;;;;;;;;;;;5.40;99.90;;;;;;5042984;28;19935;-85
2023/01/16 04:40:12;;;;;;;;;;;5.30;99.90;;;;;;5039836;28;19970;-86
2023/01/16 04:42:39;;;;;;;;;;;5.30;99.90;;;;;;5043634;28;19928;-86
2023/01/16 04:45:06;;;;;;;;;;;5.30;99.90;;;;;;5054096;28;20419;-86
2023/01/16 04:47:32;;;;;;;;;;;5.30;99.90;;;;;;5046968;28;19935;-86
2023/01/16 04:49:59;;;;;;;;;;;5.20;99.90;;;;;;5057619;28;19920;-86
2023/01/16 04:52:26;;;;;;;;;;;5.20;99.90;;;;;;5048947;28;19924;-86
2023/01/16 04:54:53;;;;;;;;;;;5.20;99.90;;;;;;5058604;28;20334;-86
2023/01/16 04:57:21;;;;;;;;;;;5.20;99.90;;;;;;5041131;28;19925;-85
2023/01/16 04:59:48;;;;;;;;;;;5.20;99.90;;;;;;5049488;28;19924;-84
2023/01/16 05:02:14;;;;;;;;;;;5.30;99.90;;;;;;5035253;28;19924;-86
2023/01/16 05:04:41;;;;;;;;;;;5.30;99.90;;;;;;5043162;28;19927;-83
2023/01/16 05:07:08;;;;;;;;;;;5.30;99.90;;;;;;5049117;28;19924;-83
2023/01/16 05:09:35;;;;;;;;;;;5.20;99.90;;;;;;5054106;28;19925;-84
2023/01/16 05:12:01;;;;;;;;;;;5.20;99.90;;;;;;5055665;28;19931;-86
2023/01/16 05:14:29;;;;;;;;;;;5.40;99.90;;;;;;5045670;28;19932;-84
2023/01/16 05:16:56;;;;;;;;;;;5.40;99.90;;;;;;5032118;28;19928;-85
2023/01/16 05:19:23;;;;;;;;;;;5.30;99.90;;;;;;5039497;28;19931;-84
2023/01/16 05:21:49;;;;;;;;;;;5.30;99.90;;;;;;5060452;28;19920;-85
2023/01/16 05:24:16;;;;;;;;;;;5.30;99.90;;;;;;5065615;28;20527;-88
2023/01/16 05:26:43;;;;;;;;;;;5.40;99.90;;;;;;5056209;28;20296;-87
2023/01/16 05:29:11;;;;;;;;;;;5.90;99.90;;;;;;5057207;28;20333;-86
2023/01/16 05:31:39;;;;;;;;;;;5.50;99.90;;;;;;5067592;28;20381;-86
2023/01/16 05:34:06;;;;;;;;;;;5.60;99.90;;;;;;5040461;28;19921;-84
2023/01/16 05:36:32;;;;;;;;;;;5.60;99.90;;;;;;5073509;28;19936;-84
2023/01/16 05:38:59;;;;;;;;;;;5.60;99.90;;;;;;5049697;28;19921;-85
2023/01/16 05:41:26;;;;;;;;;;;6.10;99.90;;;;;;5053563;28;19930;-85
2023/01/16 05:43:54;;;;;;;;;;;5.70;99.90;;;;;;5051764;28;19943;-85
2023/01/16 05:46:21;;;;;;;;;;;5.70;99.90;;;;;;5048511;28;19920;-87
2023/01/16 05:48:49;;;;;;;;;;;5.80;99.90;;;;;;5047651;28;19920;-87
2023/01/16 05:51:16;;;;;;;;;;;5.90;99.90;;;;;;5043427;28;20344;-87
2023/01/16 05:53:43;;;;;;;;;;;5.90;99.90;;;;;;5046386;28;20231;-87
2023/01/16 05:56:11;;;;;;;;;;;6.30;99.90;;;;;;5052632;28;20386;-87
2023/01/16 05:58:42;;;;;;;;;;;6.00;99.90;;;;;;5050156;28;19924;-87
2023/01/16 06:01:09;;;;;;;;;;;6.00;99.90;;;;;;5040400;28;19936;-87
2023/01/16 06:03:35;;;;;;;;;;;6.10;99.90;;;;;;5042192;28;19951;-87
2023/01/16 06:06:04;;;;;;;;;;;6.10;99.90;;;;;;5041715;28;19925;-88
2023/01/16 06:08:31;;;;;;;;;;;6.50;99.90;;;;;;5042601;28;19925;-88
2023/01/16 06:10:58;;;;;;;;;;;6.20;99.90;;;;;;5046324;28;19920;-87
2023/01/16 06:13:25;;;;;;;;;;;6.20;99.90;;;;;;5047308;28;19924;-88
2023/01/16 06:15:52;;;;;;;;;;;6.30;99.90;;;;;;5057382;28;20438;-88
2023/01/16 06:18:19;;;;;;;;;;;6.30;99.90;;;;;;5046068;28;19920;-88
2023/01/16 06:20:46;;;;;;;;;;;6.30;99.90;;;;;;5071316;28;19925;-88
2023/01/16 06:23:14;;;;;;;;;;;6.30;99.90;;;;;;5057624;28;19947;-88
2023/01/16 06:25:42;;;;;;;;;;;6.50;99.90;;;;;;5066334;28;20010;-88
2023/01/16 06:28:08;;;;;;;;;;;6.30;99.90;;;;;;5075054;28;19921;-87
2023/01/16 06:30:35;;;;;;;;;;;6.30;99.90;;;;;;5052481;28;19924;-88
2023/01/16 06:33:02;;;;;;;;;;;6.30;99.90;;;;;;5033998;28;19951;-89
2023/01/16 06:35:29;;;;;;;;;;;6.40;99.90;;;;;;5061022;28;19921;-88
2023/01/16 06:37:55;;;;;;;;;;;6.30;99.90;;;;;;5044095;28;19921;-87
2023/01/16 06:40:23;;;;;;;;;;;6.30;99.90;;;;;;5064894;28;20297;-90
2023/01/16 06:42:51;;;;;;;;;;;6.30;99.90;;;;;;5065839;28;19924;-88
2023/01/16 06:45:21;;;;;;;;;;;6.40;99.90;;;;;;5041703;28;19925;-88
2023/01/16 06:47:51;;;;;;;;;;;6.40;99.90;;;;;;5071930;28;19924;-88
2023/01/16 06:50:18;;;;;;;;;;;6.40;99.90;;;;;;5053822;28;19924;-86
2023/01/16 06:52:45;;;;;;;;;;;6.40;99.90;;;;;;5046063;28;19920;-88
2023/01/16 06:55:12;;;;;;;;;;;6.40;99.90;;;;;;5076864;28;20011;-87
2023/01/16 06:57:40;;;;;;;;;;;6.90;99.90;;;;;;5042444;28;19920;-86
2023/01/16 07:00:08;;;;;;;;;;;6.40;99.90;;;;;;5038693;28;19925;-89
2023/01/16 07:02:54;;;;;;;;;;;6.40;99.90;;;;;;5054047;28;19927;-89
2023/01/16 07:05:31;;;;;;;;;;;6.50;99.90;;;;;;5038144;28;20303;-87
2023/01/16 07:07:58;;;;;;;;;;;6.40;99.90;;;;;;5045095;28;20053;-88
2023/01/16 07:10:25;;;;;;;;;;;6.50;99.90;;;;;;5057940;28;19932;-89
2023/01/16 07:12:54;;;;;;;;;;;6.50;99.90;;;;;;5053559;28;19921;-86
2023/01/16 07:23:38;;;;;;;;;;;6.30;99.90;;;;;;5069399;28;19921;-88
2023/01/16 07:26:06;;;;;;;;;;;6.00;99.90;;;;;;5042353;28;19921;-89
2023/01/16 07:28:34;;;;;;;;;;;6.30;99.90;;;;;;5063313;28;19932;-88
2023/01/16 07:31:06;;;;;;;;;;;6.30;99.90;;;;;;5030762;28;20254;-88
2023/01/16 07:33:34;;;;;;;;;;;6.20;99.90;;;;;;5041643;28;19935;-87
2023/01/16 07:36:00;;;;;;;;;;;6.20;99.90;;;;;;5056062;28;19935;-87
2023/01/16 07:38:27;;;;;;;;;;;6.80;99.90;;;;;;5043245;28;19924;-88
2023/01/16 07:40:54;;;;;;;;;;;6.20;99.90;;;;;;5041737;28;19930;-88
2023/01/16 07:43:21;;;;;;;;;;;6.20;99.90;;;;;;5067889;28;19962;-88
2023/01/16 07:45:52;;;;;;;;;;;6.20;99.90;;;;;;5057964;28;19927;-87
2023/01/16 07:48:18;;;;;;;;;;;6.60;99.90;;;;;;5047147;28;20058;-88
2023/01/16 07:50:49;;;;;;;;;;;6.10;99.90;;;;;;5047642;28;19924;-86
2023/01/16 07:53:21;;;;;;;;;;;6.00;99.90;;;;;;5067318;28;19927;-86
2023/01/16 07:55:48;;;;;;;;;;;5.90;99.90;;;;;;5071004;28;20335;-87
2023/01/16 07:58:16;;;;;;;;;;;5.90;99.90;;;;;;5033976;28;19984;-87
2023/01/16 08:00:43;;;;;;;;;;;5.90;99.90;;;;;;5055888;28;20329;-88
2023/01/16 08:03:11;;;;;;;;;;;6.30;99.90;;;;;;5045407;28;19947;-87
2023/01/16 08:05:38;;;;;;;;;;;5.80;99.90;;;;;;5040198;28;19927;-87
2023/01/16 08:08:05;;;;;;;;;;;5.80;99.90;;;;;;5063382;28;20318;-87
2023/01/16 08:10:33;;;;;;;;;;;5.90;99.90;;;;;;5059706;28;19964;-88
2023/01/16 08:13:00;;;;;;;;;;;5.80;99.90;;;;;;5051347;28;19963;-87
2023/01/16 08:15:27;;;;;;;;;;;5.80;99.90;;;;;;5064118;28;19924;-87
2023/01/16 08:17:53;;;;;;;;;;;5.80;99.90;;;;;;5042338;28;20287;-87
2023/01/16 08:20:22;;;;;;;;;;;5.80;99.90;;;;;;5047271;28;19925;-88
2023/01/16 08:22:50;;;;;;;;;;;5.80;99.90;;;;;;5067682;28;19927;-88
2023/01/16 08:25:19;;;;;;;;;;;5.80;99.90;;;;;;5037790;28;19975;-88
2023/01/16 08:27:46;;;;;;;;;;;5.90;99.90;;;;;;5060637;28;19946;-87
2023/01/16 08:30:15;;;;;;;;;;;5.90;99.90;;;;;;5047595;28;19921;-87
2023/01/16 08:32:42;;;;;;;;;;;5.90;99.90;;;;;;5055187;28;19951;-87
2023/01/16 08:35:09;;;;;;;;;;;5.90;99.90;;;;;;5045162;28;19991;-88
2023/01/16 08:37:39;;;;;;;;;;;6.00;99.90;;;;;;5048098;28;19940;-88
2023/01/16 08:40:06;;;;;;;;;;;6.10;99.90;;;;;;5068574;28;19989;-88
2023/01/16 08:53:33;;;;;;;;;;;6.40;99.90;;;;;;5040869;28;20401;-86
2023/01/16 08:56:00;;;;;;;;;;;6.50;99.90;;;;;;5051471;28;19924;-85
2023/01/16 08:58:28;;;;;;;;;;;6.50;99.90;;;;;;5050733;28;19952;-86
2023/01/16 09:00:55;;;;;;;;;;;6.60;99.90;;;;;;5051820;28;19921;-86
2023/01/16 09:03:22;;;;;;;;;;;6.50;99.90;;;;;;5039760;28;19960;-85
2023/01/16 09:05:49;;;;;;;;;;;7.30;99.90;;;;;;5062764;28;20449;-85
2023/01/16 09:08:16;;;;;;;;;;;6.40;99.90;;;;;;5035158;28;19930;-86
2023/01/16 09:13:48;;;;;;;;;;;6.30;99.90;;;;;;5054224;28;20296;-86
2023/01/16 09:16:15;;;;;;;;;;;6.30;99.90;;;;;;5045538;28;19921;-86
2023/01/16 09:18:42;;;;;;;;;;;6.10;99.90;;;;;;5049748;28;19951;-86
2023/01/16 09:21:09;;;;;;;;;;;6.20;99.90;;;;;;5031055;28;19925;-86
2023/01/16 09:23:36;;;;;;;;;;;6.20;99.90;;;;;;5061483;28;20405;-86
2023/01/16 09:26:05;;;;;;;;;;;6.20;99.90;;;;;;5041817;28;19925;-86
2023/01/16 09:28:32;;;;;;;;;;;6.20;99.90;;;;;;5029767;28;19931;-86
2023/01/16 09:31:00;;;;;;;;;;;6.10;99.90;;;;;;5038620;28;19954;-86
2023/01/16 09:36:17;;;;;;;;;;;;;;;;;;4976138;28;20380;-86
2023/01/16 09:38:44;;;;;;;;;;;6.20;99.90;;;;;;5037004;28;19925;-86
2023/01/16 09:44:51;;;;;;;;;;;6.20;99.90;;;;;;5064543;28;19922;-88
2023/01/16 09:47:55;;;;;;;;;;;6.30;99.90;;;;;;5045169;28;19951;-88
2023/01/16 09:50:45;;;;;;;;;;;6.30;99.90;;;;;;5035876;28;20035;-88
2023/01/16 10:00:08;;;;;;;;;;;6.50;99.90;;;;;;5043895;28;19925;-88
2023/01/16 10:02:37;;;;;;;;;;;6.50;99.90;;;;;;5061079;28;19928;-88
2023/01/16 10:05:11;;;;;;;;;;;6.50;99.90;;;;;;5043603;28;19932;-89
2023/01/16 10:07:48;;;;;;;;;;;6.50;99.90;;;;;;5045682;28;20398;-88
2023/01/16 10:10:46;;;;;;;;;;;6.50;99.90;;;;;;5044581;28;20000;-88
2023/01/16 10:13:46;;;;;;;;;;;6.50;99.90;;;;;;5030093;28;20027;-89
2023/01/16 10:16:23;;;;;;;;;;;6.50;99.90;;;;;;4982392;28;19929;-88
2023/01/16 10:18:59;;;;;;;;;;;6.50;99.90;;;;;;4983717;28;19922;-88
2023/01/16 10:21:41;;;;;;;;;;;6.50;99.90;;;;;;4973591;28;20067;-87
2023/01/16 10:24:14;;;;;;;;;;;6.50;99.90;;;;;;5014584;28;19937;-88
2023/01/16 10:26:48;;;;;;;;;;;6.50;99.90;;;;;;5048485;28;19924;-87
2023/01/16 10:29:23;;;;;;;;;;;6.60;99.90;;;;;;5051131;28;19927;-87
2023/01/16 10:31:55;;;;;;;;;;;6.60;99.90;;;;;;5034947;28;19920;-87
2023/01/16 10:34:24;;;;;;;;;;;6.60;99.90;;;;;;5064751;28;19921;-88
2023/01/16 10:36:53;;;;;;;;;;;6.60;99.90;;;;;;5037452;28;19988;-87
2023/01/16 10:39:22;;;;;;;;;;;6.70;99.90;;;;;;5058254;28;19925;-88
2023/01/16 10:50:05;;;;;;;;;;;7.00;99.90;;;;;;5034242;28;20398;-88
2023/01/16 10:52:33;;;;;;;;;;;7.20;99.90;;;;;;5051489;28;19990;-86
2023/01/16 10:55:01;;;;;;;;;;;7.20;99.90;;;;;;5033880;28;19924;-88
2023/01/16 10:57:28;;;;;;;;;;;7.30;99.90;;;;;;5040292;28;19987;-87
2023/01/16 10:59:58;;;;;;;;;;;7.30;99.90;;;;;;5032696;28;19920;-88
2023/01/16 11:02:29;;;;;;;;;;;7.40;99.90;;;;;;5034874;28;19927;-88
2023/01/16 11:04:55;;;;;;;;;;;7.40;99.90;;;;;;5058503;28;20020;-88
2023/01/16 11:07:25;;;;;;;;;;;7.40;99.90;;;;;;5041559;28;19943;-88
2023/01/16 11:09:52;;;;;;;;;;;7.50;99.90;;;;;;5046039;28;19924;-87
2023/01/16 11:20:45;;;;;;;;;;;7.80;99.90;;;;;;5030921;28;19931;-87
2023/01/16 11:23:17;;;;;;;;;;;7.90;99.90;;;;;;5051868;28;19925;-87
2023/01/16 11:25:49;;;;;;;;;;;;;;;;;;5044084;28;19981;-88
2023/01/16 11:28:32;;;;;;;;;;;8.10;99.90;;;;;;5072832;28;19943;-87
2023/01/16 11:31:03;;;;;;;;;;;8.10;99.90;;;;;;5031619;28;19944;-88
2023/01/16 11:33:37;;;;;;;;;;;8.10;99.90;;;;;;5044892;28;19924;-87
2023/01/16 11:36:09;;;;;;;;;;;8.10;99.90;;;;;;5036569;28;19920;-91
2023/01/16 11:38:39;;;;;;;;;;;8.00;99.90;;;;;;5047200;28;19952;-87
2023/01/16 11:41:08;;;;;;;;;;;8.00;99.90;;;;;;5046625;28;19921;-87
2023/01/16 11:46:26;;;;;;;;;;;8.00;99.90;;;;;;5057667;28;19925;-87
2023/01/16 11:48:54;;;;;;;;;;;8.00;99.90;;;;;;5046044;28;19982;-86
2023/01/16 11:51:24;;;;;;;;;;;8.00;99.90;;;;;;5071941;28;19908;-87
2023/01/16 11:53:52;;;;;;;;;;;8.10;99.90;;;;;;5060803;28;19924;-86
2023/01/16 11:56:28;;;;;;;;;;;8.10;99.90;;;;;;5065818;28;19932;-86
2023/01/16 11:59:07;;;;;;;;;;;8.10;99.90;;;;;;5055969;28;19930;-87
2023/01/16 12:04:23;;;;;;;;;;;8.10;99.90;;;;;;5045487;28;19921;-85
2023/01/16 12:06:54;;;;;;;;;;;8.20;99.90;;;;;;5045820;28;20023;-87
2023/01/16 12:09:39;;;;;;;;;;;8.20;99.90;;;;;;5043788;28;19921;-86
2023/01/16 12:15:06;;;;;;;;;;;8.40;99.90;;;;;;5059161;28;20527;-87
2023/01/16 12:17:52;;;;;;;;;;;8.40;99.90;;;;;;5054357;28;19960;-87
2023/01/16 12:20:26;;;;;;;;;;;11.10;99.90;;;;;;5047925;28;19925;-86
2023/01/16 12:23:05;;;;;;;;;;;8.20;99.90;;;;;;5053490;28;20023;-87
2023/01/16 12:25:37;;;;;;;;;;;8.20;99.90;;;;;;5044215;28;19928;-86
2023/01/16 12:28:10;;;;;;;;;;;8.20;99.90;;;;;;5055781;28;19924;-86
2023/01/16 12:30:53;;;;;;;;;;;8.10;99.90;;;;;;5051266;28;19920;-87
2023/01/16 12:33:27;;;;;;;;;;;8.00;99.90;;;;;;5044402;28;19921;-87
2023/01/16 12:35:55;;;;;;;;;;;7.80;99.90;;;;;;5033973;28;20027;-87
2023/01/16 12:38:36;;;;;;;;;;;7.80;99.90;;;;;;5042444;28;19979;-87
2023/01/16 12:44:09;;;;;;;;;;;7.60;99.90;;;;;;5042203;28;20279;-86
2023/01/16 12:46:43;;;;;;;;;;;7.60;99.90;;;;;;5036240;28;20007;-87
2023/01/16 12:49:18;;;;;;;;;;;7.50;99.90;;;;;;5033137;28;19925;-86
2023/01/16 12:51:50;;;;;;;;;;;7.50;99.90;;;;;;5028207;28;19928;-87
2023/01/16 12:54:39;;;;;;;;;;;7.50;99.90;;;;;;5043562;28;20005;-87
2023/01/16 12:57:18;;;;;;;;;;;7.40;99.90;;;;;;5045143;28;20362;-85
2023/01/16 12:59:48;;;;;;;;;;;7.40;99.90;;;;;;5032635;28;19928;-86
2023/01/16 13:02:43;;;;;;;;;;;7.30;99.90;;;;;;5034260;28;20366;-86
2023/01/16 13:08:09;;;;;;;;;;;7.20;99.90;;;;;;5043188;28;19924;-86
2023/01/16 13:13:24;;;;;;;;;;;7.00;99.90;;;;;;5025352;28;19944;-86
2023/01/16 13:15:56;;;;;;;;;;;7.10;99.90;;;;;;5032914;28;19988;-87
2023/01/16 13:18:27;;;;;;;;;;;7.50;99.90;;;;;;5042620;28;19931;-85
2023/01/16 13:20:56;;;;;;;;;;;7.10;99.90;;;;;;5040833;28;19970;-86
2023/01/16 13:23:29;;;;;;;;;;;7.20;99.90;;;;;;5034909;28;19958;-86
2023/01/16 13:26:02;;;;;;;;;;;7.30;99.90;;;;;;5036094;28;19931;-86
2023/01/16 13:28:37;;;;;;;;;;;7.40;99.90;;;;;;5041625;28;19951;-86
2023/01/16 13:31:05;;;;;;;;;;;7.40;99.90;;;;;;5042432;28;19928;-86
2023/01/16 13:33:39;;;;;;;;;;;7.40;99.90;;;;;;5028097;28;19928;-85
2023/01/16 13:36:12;;;;;;;;;;;7.30;99.90;;;;;;5042412;28;19928;-85
2023/01/16 13:41:52;;;;;;;;;;;7.30;99.90;;;;;;5044844;28;19929;-85
2023/01/16 13:47:10;;;;;;;;;;;7.30;99.90;;;;;;5028520;28;19920;-85
2023/01/16 13:49:39;;;;;;;;;;;7.30;99.90;;;;;;5041111;28;19931;-85
2023/01/16 13:52:22;;;;;;;;;;;7.40;99.90;;;;;;5036684;28;19968;-87
2023/01/16 13:54:51;;;;;;;;;;;7.30;99.90;;;;;;5048850;28;20356;-86
2023/01/16 13:57:19;;;;;;;;;;;7.30;99.90;;;;;;5037009;28;19955;-87
2023/01/16 13:59:48;;;;;;;;;;;7.20;99.90;;;;;;5036300;28;19963;-87
2023/01/16 14:02:39;;;;;;;;;;;7.10;99.90;;;;;;5033065;28;19924;-86
2023/01/16 14:05:23;;;;;;;;;;;6.90;99.90;;;;;;5051457;28;19932;-87
2023/01/16 14:10:40;;;;;;;;;;;6.70;99.90;;;;;;5056015;28;19923;-87
2023/01/16 14:13:22;;;;;;;;;;;6.50;99.90;;;;;;5037385;28;20642;-86
2023/01/16 14:18:59;;;;;;;;;;;6.50;99.90;;;;;;5069410;28;20092;-85
2023/01/16 14:21:29;;;;;;;;;;;6.40;99.90;;;;;;5059105;28;19979;-86
2023/01/16 14:24:00;;;;;;;;;;;6.40;99.90;;;;;;5067774;28;19931;-86
2023/01/16 14:26:34;;;;;;;;;;;6.40;99.90;;;;;;5046411;28;19969;-86
2023/01/16 14:29:02;;;;;;;;;;;6.20;99.90;;;;;;5034491;28;19931;-86
2023/01/16 14:31:38;;;;;;;;;;;6.20;99.90;;;;;;5068560;28;20027;-86
2023/01/16 14:34:05;;;;;;;;;;;6.20;99.90;;;;;;5031957;28;19928;-86
2023/01/16 14:36:36;;;;;;;;;;;6.10;99.90;;;;;;5035773;28;19932;-86
2023/01/16 14:39:03;;;;;;;;;;;6.20;99.90;;;;;;5060143;28;19924;-87
2023/01/16 14:55:48;;;;;;;;;;;6.00;99.90;;;;;;5053670;28;19944;-88
2023/01/16 14:58:17;;;;;;;;;;;6.00;99.90;;;;;;5065556;28;19927;-87
2023/01/16 15:00:43;;;;;;;;;;;6.00;99.90;;;;;;5052382;28;19929;-87
2023/01/16 15:03:12;;;;;;;;;;;6.10;99.90;;;;;;5044766;28;19925;-88
2023/01/16 15:05:53;;;;;;;;;;;6.00;99.90;;;;;;5050921;28;19920;-89
2023/01/16 15:08:24;;;;;;;;;;;6.00;99.90;;;;;;5050971;28;19970;-88
2023/01/16 15:10:52;;;;;;;;;;;6.00;99.90;;;;;;5053548;28;19974;-88
2023/01/16 15:13:22;;;;;;;;;;;6.00;99.90;;;;;;5055970;28;19921;-87
2023/01/16 15:15:51;;;;;;;;;;;6.00;99.90;;;;;;5051954;28;19921;-86
2023/01/16 15:28:05;;;;;;;;;;;5.80;99.90;;;;;;5098115;22;19926;-79
2023/01/16 15:30:32;;;;;;;;;;;5.90;99.90;;;;;;5096031;28;19924;-79
2023/01/16 15:33:44;;;;;;;;;;;5.80;99.90;;;;;;5102481;28;19920;-79
2023/01/16 15:35:55;;;;;;;;;;;5.90;99.90;;;;;;5091301;28;20353;-80
2023/01/16 15:38:24;;;;;;;;;;;5.80;99.90;;;;;;5086353;28;19967;-79
2023/01/16 15:40:54;;;;;;;;;;;5.70;99.90;;;;;;5103384;28;19928;-80
2023/01/16 15:48:57;;;;;;;;;;;5.80;99.90;;;;;;5095627;28;19927;-78
2023/01/16 15:51:24;;;;;;;;;;;5.70;99.90;;;;;;5094653;28;19924;-78
2023/01/16 15:53:54;;;;;;;;;;;5.80;99.90;;;;;;5090229;28;19927;-79
2023/01/16 15:56:22;;;;;;;;;;;5.80;99.90;;;;;;5088511;28;20018;-80
2023/01/16 15:58:52;;;;;;;;;;;5.80;99.90;;;;;;5098900;28;19923;-80
2023/01/16 16:01:25;;;;;;;;;;;5.90;99.90;;;;;;5097914;28;19939;-80
2023/01/16 16:03:52;;;;;;;;;;;5.70;99.90;;;;;;5092129;28;19996;-79
2023/01/16 16:06:20;;;;;;;;;;;5.70;99.90;;;;;;5091602;28;20075;-80
2023/01/16 16:08:48;;;;;;;;;;;5.70;99.90;;;;;;5095415;28;19924;-81
2023/01/16 16:14:03;;;;;;;;;;;5.70;99.90;;;;;;5092554;28;19921;-80
2023/01/16 16:19:32;;;;;;;;;;;5.70;99.90;;;;;;5043896;28;19943;-80
2023/01/16 16:24:46;;;;;;;;;;;5.70;99.90;;;;;;5084428;28;19926;-80
2023/01/16 16:27:15;;;;;;;;;;;5.70;99.90;;;;;;5092004;28;19919;-81
2023/01/16 16:29:48;;;;;;;;;;;5.70;99.90;;;;;;5073070;28;19928;-80
2023/01/16 16:32:15;;;;;;;;;;;5.80;99.90;;;;;;5087907;28;19930;-79
2023/01/16 16:34:49;;;;;;;;;;;5.80;99.90;;;;;;5086616;28;19943;-79
2023/01/16 16:37:16;;;;;;;;;;;5.80;99.90;;;;;;5093601;28;19924;-79
2023/01/16 16:39:45;;;;;;;;;;;6.20;99.90;;;;;;5107938;28;19924;-80
2023/01/16 16:42:40;;;;;;;;;;;5.80;99.90;;;;;;5094542;28;20379;-79
2023/01/16 16:45:14;;;;;;;;;;;5.80;99.90;;;;;;5095214;28;20496;-80
2023/01/16 16:47:43;;;;;;;;;;;5.80;99.90;;;;;;5093446;28;20080;-83
2023/01/16 16:50:30;;;;;;;;;;;5.80;99.90;;;;;;5091346;28;19924;-80